sensor_id;sensor_type;location;lat;lon;timestamp;pressure;altitude;pressure_sealevel;temperature;humidity
76448;BME280;65284;51.040;13.722;2023-09-19T00:00:43;99120.00;;;17.33;100.00
76448;BME280;65284;51.040;13.722;2023-09-19T00:03:10;99131.13;;;17.37;100.00
76448;BME280;65284;51.040;13.722;2023-09-19T00:05:39;99129.41;;;17.42;100.00
76448;BME280;65284;51.040;13.722;2023-09-19T00:08:05;99125.31;;;17.40;100.00
76448;BME280;65284;51.040;13.722;2023-09-19T00:10:33;99136.97;;;17.34;100.00
76448;BME280;65284;51.040;13.722;2023-09-19T00:13:03;99131.94;;;17.37;100.00
76448;BME280;65284;51.040;13.722;2023-09-19T00:15:38;99128.13;;;17.45;100.00
76448;BME280;65284;51.040;13.722;2023-09-19T00:18:06;99124.09;;;17.36;100.00
76448;BME280;65284;51.040;13.722;2023-09-19T00:20:36;99127.69;;;17.29;100.00
76448;BME280;65284;51.040;13.722;2023-09-19T00:23:04;99127.69;;;17.29;100.00
76448;BME280;65284;51.040;13.722;2023-09-19T00:25:36;99123.66;;;17.39;100.00
76448;BME280;65284;51.040;13.722;2023-09-19T00:28:04;99112.19;;;17.32;100.00
76448;BME280;65284;51.040;13.722;2023-09-19T00:30:35;99117.16;;;17.16;100.00
76448;BME280;65284;51.040;13.722;2023-09-19T00:33:02;99111.31;;;17.19;100.00
76448;BME280;65284;51.040;13.722;2023-09-19T00:35:32;99111.63;;;17.11;100.00
76448;BME280;65284;51.040;13.722;2023-09-19T00:37:59;99116.28;;;17.04;100.00
76448;BME280;65284;51.040;13.722;2023-09-19T00:40:26;99110.41;;;17.25;100.00
76448;BME280;65284;51.040;13.722;2023-09-19T00:42:57;99098.81;;;17.13;100.00
76448;BME280;65284;51.040;13.722;2023-09-19T00:45:26;99099.28;;;17.10;100.00
76448;BME280;65284;51.040;13.722;2023-09-19T00:47:54;99102.97;;;17.09;100.00
76448;BME280;65284;51.040;13.722;2023-09-19T00:50:23;99098.72;;;17.20;100.00
76448;BME280;65284;51.040;13.722;2023-09-19T00:52:52;99097.91;;;17.19;100.00
76448;BME280;65284;51.040;13.722;2023-09-19T00:55:19;99094.63;;;17.17;100.00
76448;BME280;65284;51.040;13.722;2023-09-19T00:57:47;99108.34;;;17.09;100.00
76448;BME280;65284;51.040;13.722;2023-09-19T01:00:16;99113.66;;;17.16;100.00
76448;BME280;65284;51.040;13.722;2023-09-19T01:02:46;99101.25;;;17.15;100.00
76448;BME280;65284;51.040;13.722;2023-09-19T01:05:13;99111.19;;;17.14;100.00
76448;BME280;65284;51.040;13.722;2023-09-19T01:07:40;99099.63;;;17.14;100.00
76448;BME280;65284;51.040;13.722;2023-09-19T01:10:08;99105.50;;;17.22;100.00
76448;BME280;65284;51.040;13.722;2023-09-19T01:12:47;99110.72;;;17.17;100.00
76448;BME280;65284;51.040;13.722;2023-09-19T01:23:43;99134.16;;;17.10;100.00
76448;BME280;65284;51.040;13.722;2023-09-19T01:26:32;99135.19;;;17.09;100.00
76448;BME280;65284;51.040;13.722;2023-09-19T01:32:03;99139.38;;;17.05;100.00
76448;BME280;65284;51.040;13.722;2023-09-19T01:34:53;99148.59;;;17.09;100.00
76448;BME280;65284;51.040;13.722;2023-09-19T01:37:21;99133.63;;;17.01;100.00
76448;BME280;65284;51.040;13.722;2023-09-19T01:39:57;99131.31;;;16.87;100.00
76448;BME280;65284;51.040;13.722;2023-09-19T01:45:11;99120.81;;;16.85;100.00
76448;BME280;65284;51.040;13.722;2023-09-19T01:47:46;99129.22;;;16.89;100.00
76448;BME280;65284;51.040;13.722;2023-09-19T01:50:29;99121.31;;;16.94;100.00
76448;BME280;65284;51.040;13.722;2023-09-19T01:53:03;99124.47;;;16.91;100.00
76448;BME280;65284;51.040;13.722;2023-09-19T01:55:36;99125.50;;;16.90;100.00
76448;BME280;65284;51.040;13.722;2023-09-19T01:58:32;99125.50;;;16.90;100.00
76448;BME280;65284;51.040;13.722;2023-09-19T02:01:01;99134.22;;;16.85;100.00
76448;BME280;65284;51.040;13.722;2023-09-19T02:03:28;99140.41;;;16.86;100.00
76448;BME280;65284;51.040;13.722;2023-09-19T02:05:55;99143.69;;;16.88;100.00
76448;BME280;65284;51.040;13.722;2023-09-19T02:08:22;99138.31;;;16.88;100.00
76448;BME280;65284;51.040;13.722;2023-09-19T02:10:52;99141.91;;;16.81;100.00
76448;BME280;65284;51.040;13.722;2023-09-19T02:13:20;99141.28;;;16.79;100.00
76448;BME280;65284;51.040;13.722;2023-09-19T02:15:48;99148.88;;;16.82;100.00
76448;BME280;65284;51.040;13.722;2023-09-19T02:18:14;99144.00;;;16.98;100.00
76448;BME280;65284;51.040;13.722;2023-09-19T02:20:41;99144.50;;;16.88;100.00
76448;BME280;65284;51.040;13.722;2023-09-19T02:23:09;99142.09;;;16.80;100.00
76448;BME280;65284;51.040;13.722;2023-09-19T02:25:36;99150.53;;;16.83;100.00
76448;BME280;65284;51.040;13.722;2023-09-19T02:28:04;99149.94;;;16.81;100.00
76448;BME280;65284;51.040;13.722;2023-09-19T02:30:32;99153.22;;;16.83;100.00
76448;BME280;65284;51.040;13.722;2023-09-19T02:32:59;99148.59;;;16.91;100.00
76448;BME280;65284;51.040;13.722;2023-09-19T02:35:28;99157.25;;;16.93;100.00
76448;BME280;65284;51.040;13.722;2023-09-19T02:37:54;99140.34;;;16.92;100.00
76448;BME280;65284;51.040;13.722;2023-09-19T02:40:21;99155.66;;;16.85;100.00
76448;BME280;65284;51.040;13.722;2023-09-19T02:42:48;99160.94;;;16.92;100.00
76448;BME280;65284;51.040;13.722;2023-09-19T02:45:16;99165.75;;;16.90;100.00
76448;BME280;65284;51.040;13.722;2023-09-19T02:47:44;99172.56;;;16.86;100.00
76448;BME280;65284;51.040;13.722;2023-09-19T02:50:11;99165.59;;;16.85;100.00
76448;BME280;65284;51.040;13.722;2023-09-19T02:52:41;99169.16;;;16.97;100.00
76448;BME280;65284;51.040;13.722;2023-09-19T02:55:11;99167.63;;;16.89;100.00
76448;BME280;65284;51.040;13.722;2023-09-19T02:57:38;99159.16;;;16.86;100.00
76448;BME280;65284;51.040;13.722;2023-09-19T03:00:08;99164.41;;;16.80;100.00
76448;BME280;65284;51.040;13.722;2023-09-19T03:02:36;99163.06;;;16.90;100.00
76448;BME280;65284;51.040;13.722;2023-09-19T03:05:05;99174.25;;;16.87;100.00
76448;BME280;65284;51.040;13.722;2023-09-19T03:07:32;99177.94;;;16.86;100.00
76448;BME280;65284;51.040;13.722;2023-09-19T03:09:58;99182.84;;;16.89;100.00
76448;BME280;65284;51.040;13.722;2023-09-19T03:12:25;99185.41;;;16.83;99.93
76448;BME280;65284;51.040;13.722;2023-09-19T03:14:52;99192.03;;;16.81;99.89
76448;BME280;65284;51.040;13.722;2023-09-19T03:17:18;99187.47;;;16.81;100.00
76448;BME280;65284;51.040;13.722;2023-09-19T03:19:46;99198.22;;;16.81;100.00
76448;BME280;65284;51.040;13.722;2023-09-19T03:22:14;99202.25;;;16.91;97.67
76448;BME280;65284;51.040;13.722;2023-09-19T03:24:41;99207.84;;;16.89;97.77
76448;BME280;65284;51.040;13.722;2023-09-19T03:27:10;99196.81;;;16.97;96.56
76448;BME280;65284;51.040;13.722;2023-09-19T03:29:36;99207.53;;;16.97;96.89
76448;BME280;65284;51.040;13.722;2023-09-19T03:32:03;99207.69;;;17.02;97.35
76448;BME280;65284;51.040;13.722;2023-09-19T03:34:30;99210.16;;;17.04;95.32
76448;BME280;65284;51.040;13.722;2023-09-19T03:36:56;99206.00;;;17.08;93.62
76448;BME280;65284;51.040;13.722;2023-09-19T03:39:23;99190.41;;;17.17;92.89
76448;BME280;65284;51.040;13.722;2023-09-19T03:41:49;99200.78;;;17.13;92.88
76448;BME280;65284;51.040;13.722;2023-09-19T03:44:16;99195.19;;;17.15;92.70
76448;BME280;65284;51.040;13.722;2023-09-19T03:46:42;99190.78;;;17.20;92.43
76448;BME280;65284;51.040;13.722;2023-09-19T03:49:09;99195.03;;;17.10;92.71
76448;BME280;65284;51.040;13.722;2023-09-19T03:51:36;99194.97;;;17.16;91.13
76448;BME280;65284;51.040;13.722;2023-09-19T03:54:04;99203.13;;;17.21;90.71
76448;BME280;65284;51.040;13.722;2023-09-19T03:56:30;99198.81;;;17.20;91.24
76448;BME280;65284;51.040;13.722;2023-09-19T03:58:57;99200.25;;;17.23;90.83
76448;BME280;65284;51.040;13.722;2023-09-19T04:01:24;99209.56;;;17.20;90.59
76448;BME280;65284;51.040;13.722;2023-09-19T04:03:50;99202.13;;;17.22;90.77
76448;BME280;65284;51.040;13.722;2023-09-19T04:06:19;99215.00;;;17.32;89.67
76448;BME280;65284;51.040;13.722;2023-09-19T04:08:46;99210.44;;;17.33;89.76
76448;BME280;65284;51.040;13.722;2023-09-19T04:11:13;99215.00;;;17.32;89.33
76448;BME280;65284;51.040;13.722;2023-09-19T04:13:40;99217.47;;;17.34;89.40
76448;BME280;65284;51.040;13.722;2023-09-19T04:16:07;99214.19;;;17.32;89.44
76448;BME280;65284;51.040;13.722;2023-09-19T04:18:33;99207.63;;;17.27;89.43
76448;BME280;65284;51.040;13.722;2023-09-19T04:21:03;99218.94;;;17.29;89.37
76448;BME280;65284;51.040;13.722;2023-09-19T04:23:30;99236.09;;;17.28;89.42
76448;BME280;65284;51.040;13.722;2023-09-19T04:25:57;99222.91;;;17.27;89.31
76448;BME280;65284;51.040;13.722;2023-09-19T04:28:25;99222.69;;;17.28;88.74
76448;BME280;65284;51.040;13.722;2023-09-19T04:30:54;99218.81;;;17.24;89.27
76448;BME280;65284;51.040;13.722;2023-09-19T04:33:21;99217.97;;;17.24;89.35
76448;BME280;65284;51.040;13.722;2023-09-19T04:35:49;99211.34;;;17.26;89.31
76448;BME280;65284;51.040;13.722;2023-09-19T04:38:18;99227.91;;;17.23;89.06
76448;BME280;65284;51.040;13.722;2023-09-19T04:40:46;99233.59;;;17.34;88.49
76448;BME280;65284;51.040;13.722;2023-09-19T04:43:12;99238.56;;;17.30;88.65
76448;BME280;65284;51.040;13.722;2023-09-19T04:45:39;99241.47;;;17.28;88.31
76448;BME280;65284;51.040;13.722;2023-09-19T04:48:06;99240.28;;;17.24;88.63
76448;BME280;65284;51.040;13.722;2023-09-19T04:50:33;99235.66;;;17.32;88.43
76448;BME280;65284;51.040;13.722;2023-09-19T04:53:00;99248.09;;;17.26;88.36
76448;BME280;65284;51.040;13.722;2023-09-19T04:55:27;99240.41;;;17.29;87.89
76448;BME280;65284;51.040;13.722;2023-09-19T04:57:54;99234.47;;;17.27;88.12
76448;BME280;65284;51.040;13.722;2023-09-19T05:00:23;99239.41;;;17.31;87.79
76448;BME280;65284;51.040;13.722;2023-09-19T05:02:55;99235.56;;;17.38;87.75
76448;BME280;65284;51.040;13.722;2023-09-19T05:05:25;99245.59;;;17.31;87.66
76448;BME280;65284;51.040;13.722;2023-09-19T05:07:52;99253.25;;;17.27;87.50
76448;BME280;65284;51.040;13.722;2023-09-19T05:10:22;99256.53;;;17.29;87.12
76448;BME280;65284;51.040;13.722;2023-09-19T05:12:52;99262.78;;;17.42;87.13
76448;BME280;65284;51.040;13.722;2023-09-19T05:15:19;99263.69;;;17.36;86.73
76448;BME280;65284;51.040;13.722;2023-09-19T05:17:50;99282.63;;;17.41;86.66
76448;BME280;65284;51.040;13.722;2023-09-19T05:20:22;99282.19;;;17.44;86.16
76448;BME280;65284;51.040;13.722;2023-09-19T05:23:05;99277.25;;;17.41;86.50
76448;BME280;65284;51.040;13.722;2023-09-19T05:25:36;99291.28;;;17.43;86.15
76448;BME280;65284;51.040;13.722;2023-09-19T05:28:04;99275.75;;;17.45;85.65
76448;BME280;65284;51.040;13.722;2023-09-19T05:30:32;99280.91;;;17.46;85.42
76448;BME280;65284;51.040;13.722;2023-09-19T05:32:59;99278.06;;;17.41;85.93
76448;BME280;65284;51.040;13.722;2023-09-19T05:35:26;99287.19;;;17.40;86.10
76448;BME280;65284;51.040;13.722;2023-09-19T05:37:53;99277.88;;;17.43;85.91
76448;BME280;65284;51.040;13.722;2023-09-19T05:40:21;99288.72;;;17.48;85.55
76448;BME280;65284;51.040;13.722;2023-09-19T05:42:48;99284.25;;;17.42;85.83
76448;BME280;65284;51.040;13.722;2023-09-19T05:45:17;99289.19;;;17.45;85.36
76448;BME280;65284;51.040;13.722;2023-09-19T05:47:50;99292.47;;;17.47;85.73
76448;BME280;65284;51.040;13.722;2023-09-19T05:50:17;99300.16;;;17.43;85.51
76448;BME280;65284;51.040;13.722;2023-09-19T05:52:52;99303.06;;;17.42;85.37
76448;BME280;65284;51.040;13.722;2023-09-19T05:55:19;99302.84;;;17.43;85.75
76448;BME280;65284;51.040;13.722;2023-09-19T05:57:53;99311.09;;;17.42;85.55
76448;BME280;65284;51.040;13.722;2023-09-19T06:00:21;99311.09;;;17.42;85.25
76448;BME280;65284;51.040;13.722;2023-09-19T06:02:56;99303.81;;;17.49;85.04
76448;BME280;65284;51.040;13.722;2023-09-19T06:05:24;99308.59;;;17.47;85.09
76448;BME280;65284;51.040;13.722;2023-09-19T06:07:53;99305.09;;;17.46;85.14
76448;BME280;65284;51.040;13.722;2023-09-19T06:10:20;99302.47;;;17.58;84.51
76448;BME280;65284;51.040;13.722;2023-09-19T06:12:47;99313.81;;;17.60;84.35
76448;BME280;65284;51.040;13.722;2023-09-19T06:15:15;99310.97;;;17.55;84.78
76448;BME280;65284;51.040;13.722;2023-09-19T06:17:45;99316.34;;;17.55;84.89
76448;BME280;65284;51.040;13.722;2023-09-19T06:20:12;99316.72;;;17.59;84.39
76448;BME280;65284;51.040;13.722;2023-09-19T06:22:41;99333.66;;;17.59;84.64
76448;BME280;65284;51.040;13.722;2023-09-19T06:25:13;99340.22;;;17.63;83.71
76448;BME280;65284;51.040;13.722;2023-09-19T06:27:48;99340.22;;;17.63;84.42
76448;BME280;65284;51.040;13.722;2023-09-19T06:30:15;99346.94;;;17.54;84.67
76448;BME280;65284;51.040;13.722;2023-09-19T06:32:41;99353.41;;;17.65;84.34
76448;BME280;65284;51.040;13.722;2023-09-19T06:35:12;99356.72;;;17.67;84.02
76448;BME280;65284;51.040;13.722;2023-09-19T06:37:40;99363.63;;;17.74;83.51
76448;BME280;65284;51.040;13.722;2023-09-19T06:40:14;99364.97;;;17.65;83.71
76448;BME280;65284;51.040;13.722;2023-09-19T06:42:45;99369.69;;;17.70;83.96
76448;BME280;65284;51.040;13.722;2023-09-19T06:45:13;99369.63;;;17.77;83.62
76448;BME280;65284;51.040;13.722;2023-09-19T06:47:45;99375.47;;;17.92;82.81
76448;BME280;65284;51.040;13.722;2023-09-19T06:50:12;99380.53;;;17.82;82.95
76448;BME280;65284;51.040;13.722;2023-09-19T06:52:41;99389.34;;;17.89;82.32
76448;BME280;65284;51.040;13.722;2023-09-19T06:55:08;99392.03;;;17.89;82.45
76448;BME280;65284;51.040;13.722;2023-09-19T06:57:38;99387.88;;;17.93;81.68
76448;BME280;65284;51.040;13.722;2023-09-19T07:00:06;99388.16;;;18.03;81.83
76448;BME280;65284;51.040;13.722;2023-09-19T07:02:42;99394.13;;;18.05;81.75
76448;BME280;65284;51.040;13.722;2023-09-19T07:05:09;99399.50;;;18.05;81.57
76448;BME280;65284;51.040;13.722;2023-09-19T07:07:36;99410.78;;;18.14;81.40
76448;BME280;65284;51.040;13.722;2023-09-19T07:10:03;99413.06;;;18.29;80.61
76448;BME280;65284;51.040;13.722;2023-09-19T07:12:32;99422.63;;;18.25;80.30
76448;BME280;65284;51.040;13.722;2023-09-19T07:14:59;99411.88;;;18.25;80.06
76448;BME280;65284;51.040;13.722;2023-09-19T07:17:25;99419.63;;;18.33;77.75
76448;BME280;65284;51.040;13.722;2023-09-19T07:19:52;99414.25;;;18.33;77.37
76448;BME280;65284;51.040;13.722;2023-09-19T07:22:18;99431.88;;;18.47;77.29
76448;BME280;65284;51.040;13.722;2023-09-19T07:24:45;99432.31;;;18.44;72.96
76448;BME280;65284;51.040;13.722;2023-09-19T07:27:13;99447.28;;;18.40;73.53
76448;BME280;65284;51.040;13.722;2023-09-19T07:29:39;99448.44;;;18.44;72.40
76448;BME280;65284;51.040;13.722;2023-09-19T07:32:06;99455.34;;;18.40;72.52
76448;BME280;65284;51.040;13.722;2023-09-19T07:34:33;99454.66;;;18.45;72.30
76448;BME280;65284;51.040;13.722;2023-09-19T07:37:00;99474.88;;;18.47;71.64
76448;BME280;65284;51.040;13.722;2023-09-19T07:39:26;99471.53;;;18.52;71.92
76448;BME280;65284;51.040;13.722;2023-09-19T07:41:53;99456.06;;;18.47;70.80
76448;BME280;65284;51.040;13.722;2023-09-19T07:44:20;99455.47;;;18.45;71.44
76448;BME280;65284;51.040;13.722;2023-09-19T07:46:47;99446.03;;;18.54;71.79
76448;BME280;65284;51.040;13.722;2023-09-19T07:49:17;99470.19;;;18.61;72.26
76448;BME280;65284;51.040;13.722;2023-09-19T07:51:44;99471.44;;;18.58;72.12
76448;BME280;65284;51.040;13.722;2023-09-19T07:54:13;99466.16;;;18.52;70.71
76448;BME280;65284;51.040;13.722;2023-09-19T07:56:40;99473.72;;;18.43;69.49
76448;BME280;65284;51.040;13.722;2023-09-19T07:59:07;99471.53;;;18.52;69.38
76448;BME280;65284;51.040;13.722;2023-09-19T08:01:34;99465.72;;;18.55;69.96
76448;BME280;65284;51.040;13.722;2023-09-19T08:04:02;99466.44;;;18.62;68.79
76448;BME280;65284;51.040;13.722;2023-09-19T08:06:28;99455.31;;;18.58;67.83
76448;BME280;65284;51.040;13.722;2023-09-19T08:08:56;99464.34;;;18.64;68.23
76448;BME280;65284;51.040;13.722;2023-09-19T08:11:23;99466.44;;;18.62;68.33
76448;BME280;65284;51.040;13.722;2023-09-19T08:13:50;99458.59;;;18.60;67.92
76448;BME280;65284;51.040;13.722;2023-09-19T08:16:17;99471.25;;;18.72;67.63
76448;BME280;65284;51.040;13.722;2023-09-19T08:18:49;99463.28;;;18.83;66.82
76448;BME280;65284;51.040;13.722;2023-09-19T08:21:22;99460.00;;;18.81;66.00
76448;BME280;65284;51.040;13.722;2023-09-19T08:23:50;99480.22;;;18.84;65.79
76448;BME280;65284;51.040;13.722;2023-09-19T08:26:16;99477.94;;;18.88;65.84
76448;BME280;65284;51.040;13.722;2023-09-19T08:28:43;99473.72;;;18.92;65.85
76448;BME280;65284;51.040;13.722;2023-09-19T08:31:10;99476.09;;;19.00;65.55
76448;BME280;65284;51.040;13.722;2023-09-19T08:33:37;99485.00;;;19.00;65.27
76448;BME280;65284;51.040;13.722;2023-09-19T08:36:06;99481.63;;;19.05;64.69
76448;BME280;65284;51.040;13.722;2023-09-19T08:38:34;99489.28;;;19.20;64.65
76448;BME280;65284;51.040;13.722;2023-09-19T08:41:06;99494.41;;;19.21;64.88
76448;BME280;65284;51.040;13.722;2023-09-19T08:43:34;99517.19;;;19.07;64.17
76448;BME280;65284;51.040;13.722;2023-09-19T08:46:11;99499.75;;;19.09;64.02
76448;BME280;65284;51.040;13.722;2023-09-19T08:49:03;99497.78;;;19.05;64.22
76448;BME280;65284;51.040;13.722;2023-09-19T08:54:09;99506.66;;;19.05;64.90
76448;BME280;65284;51.040;13.722;2023-09-19T08:56:41;99495.19;;;19.10;64.89
76448;BME280;65284;51.040;13.722;2023-09-19T08:59:09;99508.69;;;19.22;65.00
76448;BME280;65284;51.040;13.722;2023-09-19T09:01:36;99514.34;;;19.32;64.36
76448;BME280;65284;51.040;13.722;2023-09-19T09:04:06;99506.50;;;19.30;62.67
76448;BME280;65284;51.040;13.722;2023-09-19T09:06:35;99514.81;;;19.29;63.30
76448;BME280;65284;51.040;13.722;2023-09-19T09:09:02;99512.69;;;19.31;63.89
76448;BME280;65284;51.040;13.722;2023-09-19T09:11:33;99503.16;;;19.47;63.19
76448;BME280;65284;51.040;13.722;2023-09-19T09:13:59;99497.41;;;19.43;62.26
76448;BME280;65284;51.040;13.722;2023-09-19T09:16:26;99511.31;;;19.40;62.59
76448;BME280;65284;51.040;13.722;2023-09-19T09:18:53;99510.66;;;19.57;62.52
76448;BME280;65284;51.040;13.722;2023-09-19T09:21:22;99492.91;;;19.67;60.46
76448;BME280;65284;51.040;13.722;2023-09-19T09:23:51;99504.72;;;19.78;60.21
76448;BME280;65284;51.040;13.722;2023-09-19T09:29:03;99493.59;;;19.86;59.56
76448;BME280;65284;51.040;13.722;2023-09-19T09:31:30;99506.94;;;19.81;59.96
76448;BME280;65284;51.040;13.722;2023-09-19T09:33:58;99514.94;;;19.76;60.51
76448;BME280;65284;51.040;13.722;2023-09-19T09:36:38;99509.66;;;19.81;61.10
76448;BME280;65284;51.040;13.722;2023-09-19T09:39:07;99515.63;;;19.83;61.04
76448;BME280;65284;51.040;13.722;2023-09-19T09:41:44;99520.59;;;19.56;61.76
76448;BME280;65284;51.040;13.722;2023-09-19T09:44:16;99535.69;;;19.45;61.57
76448;BME280;65284;51.040;13.722;2023-09-19T09:46:45;99526.44;;;19.41;61.78
76448;BME280;65284;51.040;13.722;2023-09-19T09:49:26;99520.25;;;19.52;61.73
76448;BME280;65284;51.040;13.722;2023-09-19T09:52:02;99524.25;;;19.62;61.27
76448;BME280;65284;51.040;13.722;2023-09-19T09:54:37;99518.25;;;19.60;61.09
76448;BME280;65284;51.040;13.722;2023-09-19T09:57:05;99527.50;;;19.64;61.04
76448;BME280;65284;51.040;13.722;2023-09-19T09:59:51;99523.34;;;19.68;61.33
76448;BME280;65284;51.040;13.722;2023-09-19T10:04:52;99504.63;;;19.85;60.32
76448;BME280;65284;51.040;13.722;2023-09-19T10:07:30;99505.44;;;19.73;60.51
76448;BME280;65284;51.040;13.722;2023-09-19T10:10:04;99513.16;;;19.82;60.15
76448;BME280;65284;51.040;13.722;2023-09-19T10:12:38;99522.56;;;19.91;59.87
76448;BME280;65284;51.040;13.722;2023-09-19T10:15:09;99517.16;;;19.79;60.19
76448;BME280;65284;51.040;13.722;2023-09-19T10:17:39;99515.50;;;19.66;60.33
76448;BME280;65284;51.040;13.722;2023-09-19T10:20:06;99520.31;;;19.76;60.51
76448;BME280;65284;51.040;13.722;2023-09-19T10:22:36;99534.81;;;19.75;59.73
76448;BME280;65284;51.040;13.722;2023-09-19T10:25:04;99516.56;;;19.77;59.47
76448;BME280;65284;51.040;13.722;2023-09-19T10:27:35;99529.22;;;19.88;59.22
76448;BME280;65284;51.040;13.722;2023-09-19T10:30:07;99542.56;;;19.83;59.92
76448;BME280;65284;51.040;13.722;2023-09-19T10:32:35;99528.88;;;19.85;60.33
76448;BME280;65284;51.040;13.722;2023-09-19T10:35:02;99526.16;;;19.96;60.24
76448;BME280;65284;51.040;13.722;2023-09-19T10:37:31;99525.94;;;19.86;59.24
76448;BME280;65284;51.040;13.722;2023-09-19T10:39:58;99516.44;;;19.95;59.02
76448;BME280;65284;51.040;13.722;2023-09-19T10:42:26;99517.25;;;20.08;59.27
76448;BME280;65284;51.040;13.722;2023-09-19T10:44:57;99528.28;;;20.18;59.05
76448;BME280;65284;51.040;13.722;2023-09-19T10:47:26;99524.31;;;20.09;58.15
76448;BME280;65284;51.040;13.722;2023-09-19T10:49:53;99519.59;;;20.16;57.47
76448;BME280;65284;51.040;13.722;2023-09-19T10:52:23;99535.66;;;20.11;55.64
76448;BME280;65284;51.040;13.722;2023-09-19T10:54:52;99509.78;;;20.10;54.32
76448;BME280;65284;51.040;13.722;2023-09-19T10:57:24;99520.28;;;20.23;54.68
76448;BME280;65284;51.040;13.722;2023-09-19T11:00:04;99507.88;;;20.22;55.00
76448;BME280;65284;51.040;13.722;2023-09-19T11:03:23;99490.97;;;20.38;53.26
76448;BME280;65284;51.040;13.722;2023-09-19T11:08:27;99516.53;;;20.59;53.69
76448;BME280;65284;51.040;13.722;2023-09-19T11:10:53;99513.69;;;20.66;52.81
76448;BME280;65284;51.040;13.722;2023-09-19T11:13:28;99504.78;;;20.65;51.67
76448;BME280;65284;51.040;13.722;2023-09-19T11:26:45;99502.19;;;20.99;48.54
76448;BME280;65284;51.040;13.722;2023-09-19T11:29:24;99523.94;;;20.93;48.23
76448;BME280;65284;51.040;13.722;2023-09-19T11:31:51;99505.69;;;21.00;47.98
76448;BME280;65284;51.040;13.722;2023-09-19T11:40:06;99505.91;;;20.81;49.33
76448;BME280;65284;51.040;13.722;2023-09-19T11:42:49;99503.03;;;20.88;49.36
76448;BME280;65284;51.040;13.722;2023-09-19T11:46:00;99512.94;;;20.82;49.53
76448;BME280;65284;51.040;13.722;2023-09-19T11:48:24;99504.44;;;20.90;49.50
76448;BME280;65284;51.040;13.722;2023-09-19T11:50:54;99510.06;;;21.01;50.10
76448;BME280;65284;51.040;13.722;2023-09-19T11:53:22;99502.63;;;21.08;49.25
76448;BME280;65284;51.040;13.722;2023-09-19T11:55:49;99505.78;;;21.05;48.69
76448;BME280;65284;51.040;13.722;2023-09-19T11:58:17;99527.28;;;21.00;49.33
76448;BME280;65284;51.040;13.722;2023-09-19T12:00:45;99507.25;;;20.96;49.46
76448;BME280;65284;51.040;13.722;2023-09-19T12:03:12;99505.31;;;21.08;49.30
76448;BME280;65284;51.040;13.722;2023-09-19T12:05:43;99532.63;;;20.95;49.75
76448;BME280;65284;51.040;13.722;2023-09-19T12:08:09;99492.69;;;20.97;49.71
76448;BME280;65284;51.040;13.722;2023-09-19T12:10:47;99496.44;;;20.96;49.66
76448;BME280;65284;51.040;13.722;2023-09-19T12:13:20;99503.97;;;20.94;50.92
76448;BME280;65284;51.040;13.722;2023-09-19T12:15:47;99513.88;;;20.76;52.88
76448;BME280;65284;51.040;13.722;2023-09-19T12:18:29;99519.75;;;20.73;53.22
76448;BME280;65284;51.040;13.722;2023-09-19T12:20:56;99525.03;;;20.80;53.60
76448;BME280;65284;51.040;13.722;2023-09-19T12:23:24;99522.84;;;20.65;53.47
76448;BME280;65284;51.040;13.722;2023-09-19T12:25:52;99526.72;;;20.69;53.18
76448;BME280;65284;51.040;13.722;2023-09-19T12:28:27;99516.34;;;20.78;52.87
76448;BME280;65284;51.040;13.722;2023-09-19T12:30:54;99515.81;;;20.64;53.28
76448;BME280;65284;51.040;13.722;2023-09-19T12:33:21;99499.13;;;20.67;53.17
76448;BME280;65284;51.040;13.722;2023-09-19T12:35:52;99513.41;;;20.79;52.89
76448;BME280;65284;51.040;13.722;2023-09-19T12:38:26;99505.09;;;20.81;53.13
76448;BME280;65284;51.040;13.722;2023-09-19T12:41:01;99512.63;;;20.67;52.95
76448;BME280;65284;51.040;13.722;2023-09-19T12:43:31;99506.19;;;20.68;52.61
76448;BME280;65284;51.040;13.722;2023-09-19T12:46:03;99490.66;;;20.75;52.54
76448;BME280;65284;51.040;13.722;2023-09-19T12:48:31;99500.22;;;20.95;52.59
76448;BME280;65284;51.040;13.722;2023-09-19T12:51:08;99506.91;;;20.92;52.17
76448;BME280;65284;51.040;13.722;2023-09-19T12:53:43;99495.88;;;20.94;52.23
76448;BME280;65284;51.040;13.722;2023-09-19T12:56:13;99500.22;;;20.95;51.46
76448;BME280;65284;51.040;13.722;2023-09-19T12:58:51;99496.63;;;21.06;51.28
76448;BME280;65284;51.040;13.722;2023-09-19T13:01:21;99493.13;;;21.05;51.35
76448;BME280;65284;51.040;13.722;2023-09-19T13:04:11;99493.75;;;21.24;51.48
76448;BME280;65284;51.040;13.722;2023-09-19T13:06:42;99501.75;;;21.19;51.83
76448;BME280;65284;51.040;13.722;2023-09-19T13:09:11;99493.75;;;21.24;51.77
76448;BME280;65284;51.040;13.722;2023-09-19T13:11:38;99504.25;;;21.38;51.13
76448;BME280;65284;51.040;13.722;2023-09-19T13:14:24;99505.69;;;21.28;50.63
76448;BME280;65284;51.040;13.722;2023-09-19T13:16:58;99501.16;;;21.46;50.75
76448;BME280;65284;51.040;13.722;2023-09-19T13:19:35;99500.00;;;21.42;50.49
76448;BME280;65284;51.040;13.722;2023-09-19T13:22:02;99499.66;;;21.38;49.01
76448;BME280;65284;51.040;13.722;2023-09-19T13:24:29;99502.97;;;21.57;49.32
76448;BME280;65284;51.040;13.722;2023-09-19T13:26:57;99498.34;;;21.41;49.77
76448;BME280;65284;51.040;13.722;2023-09-19T13:29:23;99500.00;;;21.42;49.83
76448;BME280;65284;51.040;13.722;2023-09-19T13:31:51;99499.69;;;21.55;49.37
76448;BME280;65284;51.040;13.722;2023-09-19T13:34:21;99484.44;;;21.49;49.65
76448;BME280;65284;51.040;13.722;2023-09-19T13:36:48;99501.47;;;21.49;49.97
76448;BME280;65284;51.040;13.722;2023-09-19T13:39:15;99492.78;;;21.64;49.79
76448;BME280;65284;51.040;13.722;2023-09-19T13:41:47;99481.50;;;21.67;49.70